Silverthorne, Colorado
Current Conditions -  °F | °C
As of 12:17 AM on Saturday 25 Oct 2014 (Local Time) from KCCU Reporting Station
Clear Clear  
Wind Chill: 38°   Ceiling: Unl
Heat Index: 45°   Visibility: 10mi
Dew Point: 14°   Wind: 14mph
Humidity: 29%   Direction: 180°S
Pressure: 30.65"   Gusts: NA
Location:  39.65°N, 106.08°W
Report Text: KCCU 250617Z AUTO 18012KT 10SM CLR 07/M10 A3065 RMK AO2
Loading
Personal Weather Stations






























Interactive Weather Map
Tropical Storm Tracking
New forecast layout! Learn more

10-Day Weather Forecast

Advertisements
Track Severe Weather on mobile